createdAt,value
2023-04-29T00:00:58.936Z,996.64
2023-04-29T00:01:59.079Z,996.62
2023-04-29T00:02:59.178Z,996.63
2023-04-29T00:03:59.180Z,996.63
2023-04-29T00:04:59.100Z,996.63
2023-04-29T00:05:59.014Z,996.64
2023-04-29T00:06:58.891Z,996.67
2023-04-29T00:07:58.862Z,996.69
2023-04-29T00:08:58.929Z,996.72
2023-04-29T00:09:58.887Z,996.73
2023-04-29T00:10:58.907Z,996.76
2023-04-29T00:11:58.854Z,996.74
2023-04-29T00:12:58.871Z,996.77
2023-04-29T00:13:58.787Z,996.75
2023-04-29T00:14:58.825Z,996.78
2023-04-29T00:15:58.851Z,996.80
2023-04-29T00:16:58.832Z,996.80
2023-04-29T00:17:58.754Z,996.80
2023-04-29T00:18:58.808Z,996.82
2023-04-29T00:19:58.759Z,996.80
2023-04-29T00:20:58.744Z,996.83
2023-04-29T00:21:58.711Z,996.84
2023-04-29T00:22:58.772Z,996.87
2023-04-29T00:23:58.829Z,996.88
2023-04-29T00:24:58.685Z,996.88
2023-04-29T00:25:58.700Z,996.88
2023-04-29T00:26:58.716Z,996.87
2023-04-29T00:27:58.652Z,996.83
2023-04-29T00:28:58.676Z,996.83
2023-04-29T00:29:58.652Z,996.81
2023-04-29T00:30:58.629Z,996.80
2023-04-29T00:31:58.680Z,996.81
2023-04-29T00:32:58.724Z,996.80
2023-04-29T00:33:58.587Z,996.79
2023-04-29T00:34:58.648Z,996.78
2023-04-29T00:35:58.568Z,996.75
2023-04-29T00:36:58.609Z,996.74
2023-04-29T00:37:58.594Z,996.73
2023-04-29T00:38:58.530Z,996.73
2023-04-29T00:39:58.520Z,996.74
2023-04-29T00:40:58.523Z,996.76
2023-04-29T00:41:58.481Z,996.76
2023-04-29T00:42:58.586Z,996.78
2023-04-29T00:43:58.460Z,996.78
2023-04-29T00:44:58.480Z,996.77
2023-04-29T00:45:58.540Z,996.78
2023-04-29T00:46:58.454Z,996.78
2023-04-29T00:47:58.518Z,996.79
2023-04-29T00:48:58.433Z,996.78
2023-04-29T00:49:58.406Z,996.79
2023-04-29T00:50:58.400Z,996.78
2023-04-29T00:51:58.355Z,996.78
2023-04-29T00:52:58.382Z,996.78
2023-04-29T00:53:58.449Z,996.78
2023-04-29T00:54:58.391Z,996.77
2023-04-29T00:55:58.348Z,996.76
2023-04-29T00:56:58.397Z,996.75
2023-04-29T00:57:58.336Z,996.75
2023-04-29T00:58:58.333Z,996.74
2023-04-29T00:59:58.316Z,996.75
2023-04-29T01:00:58.288Z,996.75
2023-04-29T01:01:58.394Z,996.75
2023-04-29T01:02:58.413Z,996.74
2023-04-29T01:03:58.471Z,996.73
2023-04-29T01:04:58.293Z,996.73
2023-04-29T01:05:58.254Z,996.74
2023-04-29T01:06:58.228Z,996.74
2023-04-29T01:07:58.345Z,996.73
2023-04-29T01:08:58.206Z,996.75
2023-04-29T01:09:58.217Z,996.75
2023-04-29T01:10:58.212Z,996.75
2023-04-29T01:11:58.180Z,996.75
2023-04-29T01:12:58.218Z,996.74
2023-04-29T01:13:58.198Z,996.73
2023-04-29T01:14:58.106Z,996.72
2023-04-29T01:15:58.171Z,996.72
2023-04-29T01:16:58.158Z,996.73
2023-04-29T01:17:58.155Z,996.74
2023-04-29T01:18:58.185Z,996.74
2023-04-29T01:19:58.226Z,996.77
2023-04-29T01:20:58.093Z,996.76
2023-04-29T01:21:58.041Z,996.77
2023-04-29T01:22:58.105Z,996.78
2023-04-29T01:23:58.044Z,996.77
2023-04-29T01:24:58.100Z,996.79
2023-04-29T01:25:58.058Z,996.80
2023-04-29T01:26:58.013Z,996.81
2023-04-29T01:27:58.028Z,996.79
2023-04-29T01:28:57.981Z,996.79
2023-04-29T01:29:58.013Z,996.79
2023-04-29T01:30:58.036Z,996.78
2023-04-29T01:31:58.243Z,996.79
2023-04-29T01:32:58.079Z,996.77
2023-04-29T01:33:57.951Z,996.79
2023-04-29T01:34:57.985Z,996.79
2023-04-29T01:35:58.055Z,996.82
2023-04-29T01:36:57.995Z,996.81
2023-04-29T01:37:57.929Z,996.81
2023-04-29T01:38:57.957Z,996.83
2023-04-29T01:39:57.894Z,996.84
2023-04-29T01:40:57.899Z,996.84
2023-04-29T01:41:57.892Z,996.86
2023-04-29T01:42:57.826Z,996.85
2023-04-29T01:43:57.873Z,996.83
2023-04-29T01:44:57.809Z,996.82
2023-04-29T01:45:57.784Z,996.82
2023-04-29T01:46:57.896Z,996.83
2023-04-29T01:47:57.884Z,996.83
2023-04-29T01:48:57.826Z,996.83
2023-04-29T01:49:57.920Z,996.82
2023-04-29T01:50:57.744Z,996.81
2023-04-29T01:51:57.752Z,996.82
2023-04-29T01:52:57.728Z,996.82
2023-04-29T01:53:57.733Z,996.83
2023-04-29T01:54:57.711Z,996.84
2023-04-29T01:55:57.708Z,996.84
2023-04-29T01:56:57.712Z,996.84
2023-04-29T01:57:57.689Z,996.85
2023-04-29T01:58:57.690Z,996.88
2023-04-29T01:59:57.683Z,996.89
2023-04-29T02:00:57.789Z,996.88
2023-04-29T02:01:57.669Z,996.90
2023-04-29T02:02:57.666Z,996.88
2023-04-29T02:03:57.684Z,996.88
2023-04-29T02:04:57.761Z,996.88
2023-04-29T02:05:57.592Z,996.90
2023-04-29T02:06:57.612Z,996.90
2023-04-29T02:07:57.547Z,996.92
2023-04-29T02:08:57.655Z,996.91
2023-04-29T02:09:57.658Z,996.91
2023-04-29T02:10:57.574Z,996.92
2023-04-29T02:11:57.595Z,996.92
2023-04-29T02:12:57.521Z,996.90
2023-04-29T02:13:57.597Z,996.90
2023-04-29T02:14:57.550Z,996.92
2023-04-29T02:15:57.572Z,996.91
2023-04-29T02:16:57.543Z,996.89
2023-04-29T02:17:57.502Z,996.89
2023-04-29T02:18:57.470Z,996.91
2023-04-29T02:19:57.481Z,996.94
2023-04-29T02:20:57.431Z,996.95
2023-04-29T02:21:57.443Z,996.96
2023-04-29T02:22:57.414Z,996.97
2023-04-29T02:23:57.403Z,996.99
2023-04-29T02:24:57.396Z,997.00
2023-04-29T02:25:57.384Z,996.98
2023-04-29T02:26:57.374Z,996.98
2023-04-29T02:27:57.376Z,996.97
2023-04-29T02:28:57.471Z,996.96
2023-04-29T02:29:57.370Z,996.96
2023-04-29T02:30:57.330Z,996.97
2023-04-29T02:31:57.363Z,996.98
2023-04-29T02:32:57.374Z,997.00
2023-04-29T02:33:57.273Z,997.03
2023-04-29T02:34:57.355Z,997.03
2023-04-29T02:35:57.278Z,997.04
2023-04-29T02:36:57.290Z,997.04
2023-04-29T02:37:57.254Z,997.03
2023-04-29T02:38:57.214Z,997.04
2023-04-29T02:39:57.239Z,997.04
2023-04-29T02:40:57.295Z,997.05
2023-04-29T02:41:57.247Z,997.06
2023-04-29T02:42:57.206Z,997.09
2023-04-29T02:43:57.244Z,997.10
2023-04-29T02:44:57.258Z,997.12
2023-04-29T02:45:57.305Z,997.13
2023-04-29T02:46:57.385Z,997.14
2023-04-29T02:47:57.199Z,997.15
2023-04-29T02:48:57.155Z,997.14
2023-04-29T02:49:57.181Z,997.15
2023-04-29T02:50:57.164Z,997.14
2023-04-29T02:51:57.092Z,997.15
2023-04-29T02:52:57.100Z,997.15
2023-04-29T02:53:57.102Z,997.15
2023-04-29T02:54:57.144Z,997.15
2023-04-29T02:55:57.080Z,997.17
2023-04-29T02:56:57.073Z,997.17
2023-04-29T02:57:57.060Z,997.18
2023-04-29T02:58:57.023Z,997.19
2023-04-29T02:59:57.031Z,997.17
2023-04-29T03:00:57.198Z,997.21
2023-04-29T03:01:56.997Z,997.18
2023-04-29T03:02:57.071Z,997.18
2023-04-29T03:03:57.543Z,997.20
2023-04-29T03:04:56.996Z,997.22
2023-04-29T03:05:56.966Z,997.20
2023-04-29T03:06:56.967Z,997.22
2023-04-29T03:07:56.981Z,997.23
2023-04-29T03:08:56.996Z,997.22
2023-04-29T03:09:56.933Z,997.22
2023-04-29T03:10:56.994Z,997.23
2023-04-29T03:11:56.939Z,997.20
2023-04-29T03:12:56.898Z,997.20
2023-04-29T03:13:56.858Z,997.20
2023-04-29T03:14:56.881Z,997.17
2023-04-29T03:15:56.958Z,997.18
2023-04-29T03:16:56.898Z,997.19
2023-04-29T03:17:56.849Z,997.19
2023-04-29T03:18:56.904Z,997.15
2023-04-29T03:19:56.844Z,997.15
2023-04-29T03:20:56.886Z,997.16
2023-04-29T03:21:56.763Z,997.13
2023-04-29T03:22:56.803Z,997.14
2023-04-29T03:23:56.777Z,997.15
2023-04-29T03:24:56.722Z,997.13
2023-04-29T03:25:56.794Z,997.15
2023-04-29T03:26:56.759Z,997.14
2023-04-29T03:27:56.704Z,997.16
2023-04-29T03:28:56.689Z,997.15
2023-04-29T03:29:56.750Z,997.17
2023-04-29T03:30:56.697Z,997.15
2023-04-29T03:31:56.673Z,997.13
2023-04-29T03:32:56.727Z,997.14
2023-04-29T03:33:56.640Z,997.15
2023-04-29T03:34:56.587Z,997.18
2023-04-29T03:35:56.655Z,997.18
2023-04-29T03:36:56.593Z,997.17
2023-04-29T03:37:56.560Z,997.19
2023-04-29T03:38:56.563Z,997.17
2023-04-29T03:39:56.537Z,997.16
2023-04-29T03:40:56.518Z,997.17
2023-04-29T03:41:56.611Z,997.18
2023-04-29T03:42:56.513Z,997.19
2023-04-29T03:43:56.474Z,997.21
2023-04-29T03:44:56.485Z,997.21
2023-04-29T03:45:56.470Z,997.24
2023-04-29T03:46:56.432Z,997.24
2023-04-29T03:47:56.508Z,997.24
2023-04-29T03:48:56.467Z,997.24
2023-04-29T03:49:56.415Z,997.24
2023-04-29T03:50:56.388Z,997.22
2023-04-29T03:51:56.385Z,997.23
2023-04-29T03:52:56.387Z,997.24
2023-04-29T03:53:56.378Z,997.23
2023-04-29T03:54:56.349Z,997.27
2023-04-29T03:55:56.343Z,997.28
2023-04-29T03:56:56.571Z,997.30
2023-04-29T03:57:56.383Z,997.31
2023-04-29T03:58:56.320Z,997.31
2023-04-29T03:59:56.372Z,997.34
2023-04-29T04:00:56.323Z,997.36
2023-04-29T04:01:56.357Z,997.35
2023-04-29T04:02:56.377Z,997.37
2023-04-29T04:03:56.328Z,997.38
2023-04-29T04:04:56.326Z,997.36
2023-04-29T04:05:56.251Z,997.42
2023-04-29T04:06:56.275Z,997.38
2023-04-29T04:07:56.275Z,997.44
2023-04-29T04:08:56.249Z,997.44
2023-04-29T04:09:56.202Z,997.45
2023-04-29T04:10:56.192Z,997.47
2023-04-29T04:11:56.145Z,997.45
2023-04-29T04:12:56.217Z,997.42
2023-04-29T04:13:56.213Z,997.46
2023-04-29T04:14:56.108Z,997.43
2023-04-29T04:15:56.142Z,997.43
2023-04-29T04:16:56.130Z,997.45
2023-04-29T04:17:56.088Z,997.45
2023-04-29T04:18:56.137Z,997.49
2023-04-29T04:19:56.053Z,997.49
2023-04-29T04:20:56.124Z,997.53
2023-04-29T04:21:56.085Z,997.60
2023-04-29T04:22:56.032Z,997.63
2023-04-29T04:23:56.123Z,997.65
2023-04-29T04:24:56.013Z,997.67
2023-04-29T04:25:56.003Z,997.70
2023-04-29T04:26:56.026Z,997.74
2023-04-29T04:27:56.026Z,997.77
2023-04-29T04:28:55.961Z,997.77
2023-04-29T04:29:55.972Z,997.80
2023-04-29T04:30:55.947Z,997.82
2023-04-29T04:31:56.000Z,997.84
2023-04-29T04:32:56.074Z,997.86
2023-04-29T04:33:55.966Z,997.86
2023-04-29T04:34:55.925Z,997.85
2023-04-29T04:35:55.911Z,997.88
2023-04-29T04:36:55.929Z,997.89
2023-04-29T04:37:55.912Z,997.88
2023-04-29T04:38:55.909Z,997.88
2023-04-29T04:39:55.865Z,997.89
2023-04-29T04:40:55.870Z,997.91
2023-04-29T04:41:55.919Z,997.91
2023-04-29T04:42:55.908Z,997.94
2023-04-29T04:43:55.847Z,997.93
2023-04-29T04:44:55.823Z,997.96
2023-04-29T04:45:55.858Z,997.96
2023-04-29T04:46:55.777Z,997.96
2023-04-29T04:47:55.910Z,997.97
2023-04-29T04:48:55.788Z,997.96
2023-04-29T04:49:56.051Z,997.97
2023-04-29T04:50:55.853Z,997.99
2023-04-29T04:51:55.738Z,998.01
2023-04-29T04:52:55.793Z,998.02
2023-04-29T04:53:55.714Z,998.02
2023-04-29T04:54:55.706Z,998.02
2023-04-29T04:55:55.760Z,998.04
2023-04-29T04:56:55.703Z,998.03
2023-04-29T04:57:55.714Z,998.06
2023-04-29T04:58:55.679Z,998.08
2023-04-29T04:59:55.665Z,998.08
2023-04-29T05:00:55.668Z,998.10
2023-04-29T05:01:55.635Z,998.12
2023-04-29T05:02:55.807Z,998.12
2023-04-29T05:03:55.698Z,998.14
2023-04-29T05:04:55.585Z,998.14
2023-04-29T05:05:55.572Z,998.15
2023-04-29T05:06:55.587Z,998.17
2023-04-29T05:07:55.550Z,998.18
2023-04-29T05:08:55.529Z,998.19
2023-04-29T05:09:55.516Z,998.21
2023-04-29T05:10:55.520Z,998.22
2023-04-29T05:11:55.507Z,998.19
2023-04-29T05:12:55.483Z,998.24
2023-04-29T05:13:55.488Z,998.23
2023-04-29T05:14:55.493Z,998.23
2023-04-29T05:15:55.487Z,998.29
2023-04-29T05:16:55.536Z,998.29
2023-04-29T05:17:55.492Z,998.32
2023-04-29T05:18:55.446Z,998.33
2023-04-29T05:19:55.466Z,998.30
2023-04-29T05:20:55.405Z,998.30
2023-04-29T05:21:55.406Z,998.32
2023-04-29T05:22:55.368Z,998.33
2023-04-29T05:23:55.469Z,998.32
2023-04-29T05:24:55.454Z,998.35
2023-04-29T05:25:55.383Z,998.38
2023-04-29T05:26:55.409Z,998.35
2023-04-29T05:27:55.365Z,998.39
2023-04-29T05:28:55.439Z,998.43
2023-04-29T05:29:55.388Z,998.47
2023-04-29T05:30:55.303Z,998.44
2023-04-29T05:31:55.440Z,998.47
2023-04-29T05:32:55.352Z,998.49
2023-04-29T05:33:55.286Z,998.49
2023-04-29T05:34:55.237Z,998.51
2023-04-29T05:35:55.239Z,998.54
2023-04-29T05:36:55.246Z,998.53
2023-04-29T05:37:55.261Z,998.54
2023-04-29T05:38:55.430Z,998.55
2023-04-29T05:39:55.221Z,998.56
2023-04-29T05:40:55.271Z,998.60
2023-04-29T05:41:55.302Z,998.60
2023-04-29T05:42:55.192Z,998.60
2023-04-29T05:43:55.192Z,998.62
2023-04-29T05:44:55.292Z,998.66
2023-04-29T05:45:55.503Z,998.64
2023-04-29T05:46:55.141Z,998.67
2023-04-29T05:47:55.222Z,998.69
2023-04-29T05:48:55.121Z,998.69
2023-04-29T05:49:55.280Z,998.71
2023-04-29T05:50:55.236Z,998.73
2023-04-29T05:51:55.070Z,998.76
2023-04-29T05:52:55.151Z,998.81
2023-04-29T05:53:55.134Z,998.82
2023-04-29T05:54:55.378Z,998.84
2023-04-29T05:55:55.073Z,998.86
2023-04-29T05:56:55.095Z,998.88
2023-04-29T05:57:55.062Z,998.93
2023-04-29T05:58:55.012Z,998.96
2023-04-29T05:59:55.304Z,998.98
2023-04-29T06:00:54.979Z,998.99
2023-04-29T06:01:55.184Z,998.99
2023-04-29T06:02:59.049Z,999.01
2023-04-29T06:03:55.296Z,999.05
2023-04-29T06:04:55.522Z,999.07
2023-04-29T06:05:55.065Z,999.05
2023-04-29T06:06:54.957Z,999.09
2023-04-29T06:07:54.926Z,999.07
2023-04-29T06:08:54.993Z,999.08
2023-04-29T06:09:55.460Z,999.11
2023-04-29T06:10:54.934Z,999.11
2023-04-29T06:11:54.986Z,999.16
2023-04-29T06:12:54.926Z,999.15
2023-04-29T06:13:54.821Z,999.16
2023-04-29T06:14:54.805Z,999.16
2023-04-29T06:15:54.817Z,999.20
2023-04-29T06:16:54.786Z,999.14
2023-04-29T06:17:54.791Z,999.21
2023-04-29T06:18:54.774Z,999.25
2023-04-29T06:19:54.926Z,999.26
2023-04-29T06:20:54.719Z,999.28
2023-04-29T06:21:54.737Z,999.25
2023-04-29T06:22:54.732Z,999.32
2023-04-29T06:23:54.707Z,999.27
2023-04-29T06:24:54.687Z,999.37
2023-04-29T06:25:54.699Z,999.37
2023-04-29T06:26:54.670Z,999.33
2023-04-29T06:27:54.678Z,999.39
2023-04-29T06:28:54.687Z,999.36
2023-04-29T06:29:54.909Z,999.40
2023-04-29T06:30:54.622Z,999.39
2023-04-29T06:31:54.663Z,999.42
2023-04-29T06:32:54.647Z,999.44
2023-04-29T06:33:54.599Z,999.44
2023-04-29T06:34:54.608Z,999.44
2023-04-29T06:35:54.588Z,999.50
2023-04-29T06:36:54.586Z,999.47
2023-04-29T06:37:54.544Z,999.49
2023-04-29T06:38:54.573Z,999.51
2023-04-29T06:39:54.813Z,999.52
2023-04-29T06:40:54.532Z,999.52
2023-04-29T06:41:54.513Z,999.52
2023-04-29T06:42:54.515Z,999.53
2023-04-29T06:43:54.500Z,999.58
2023-04-29T06:44:54.461Z,999.51
2023-04-29T06:45:54.472Z,999.51
2023-04-29T06:46:54.500Z,999.51
2023-04-29T06:47:54.491Z,999.52
2023-04-29T06:48:54.440Z,999.54
2023-04-29T06:49:54.675Z,999.56
2023-04-29T06:50:54.395Z,999.52
2023-04-29T06:51:54.398Z,999.53
2023-04-29T06:52:54.408Z,999.54
2023-04-29T06:53:54.416Z,999.53
2023-04-29T06:54:54.388Z,999.54
2023-04-29T06:55:54.391Z,999.52
2023-04-29T06:56:54.342Z,999.56
2023-04-29T06:57:54.331Z,999.55
2023-04-29T06:58:54.359Z,999.57
2023-04-29T06:59:54.638Z,999.57
2023-04-29T07:00:54.422Z,999.60
2023-04-29T07:01:54.460Z,999.60
2023-04-29T07:02:54.376Z,999.59
2023-04-29T07:03:54.415Z,999.61
2023-04-29T07:04:54.275Z,999.62
2023-04-29T07:05:54.282Z,999.65
2023-04-29T07:06:54.260Z,999.66
2023-04-29T07:07:54.243Z,999.67
2023-04-29T07:08:55.510Z,999.66
2023-04-29T07:09:54.536Z,999.66
2023-04-29T07:10:54.223Z,999.67
2023-04-29T07:11:54.188Z,999.67
2023-04-29T07:12:54.176Z,999.70
2023-04-29T07:13:54.157Z,999.69
2023-04-29T07:14:54.138Z,999.70
2023-04-29T07:15:54.179Z,999.72
2023-04-29T07:16:54.197Z,999.73
2023-04-29T07:17:54.192Z,999.74
2023-04-29T07:18:54.120Z,999.77
2023-04-29T07:19:54.274Z,999.76
2023-04-29T07:20:54.087Z,999.78
2023-04-29T07:21:54.083Z,999.82
2023-04-29T07:22:54.097Z,999.81
2023-04-29T07:23:54.143Z,999.82
2023-04-29T07:24:54.362Z,999.84
2023-04-29T07:25:54.073Z,999.86
2023-04-29T07:26:54.029Z,999.86
2023-04-29T07:27:54.010Z,999.89
2023-04-29T07:28:54.024Z,999.90
2023-04-29T07:29:54.053Z,999.93
2023-04-29T07:30:53.997Z,999.91
2023-04-29T07:31:53.964Z,999.95
2023-04-29T07:32:54.010Z,999.98
2023-04-29T07:33:53.967Z,1000.00
2023-04-29T07:34:54.264Z,1000.00
2023-04-29T07:35:54.050Z,1000.01
2023-04-29T07:36:53.933Z,1000.02
2023-04-29T07:37:53.943Z,1000.03
2023-04-29T07:38:53.888Z,1000.02
2023-04-29T07:39:53.896Z,1000.02
2023-04-29T07:40:53.872Z,1000.05
2023-04-29T07:41:53.873Z,1000.04
2023-04-29T07:42:53.879Z,1000.05
2023-04-29T07:43:53.831Z,1000.07
2023-04-29T07:44:54.151Z,1000.10
2023-04-29T07:45:53.889Z,1000.09
2023-04-29T07:46:53.838Z,1000.10
2023-04-29T07:47:53.830Z,1000.14
2023-04-29T07:48:53.762Z,1000.14
2023-04-29T07:49:53.765Z,1000.17
2023-04-29T07:50:53.766Z,1000.19
2023-04-29T07:51:53.756Z,1000.22
2023-04-29T07:52:53.764Z,1000.25
2023-04-29T07:53:53.743Z,1000.25
2023-04-29T07:54:53.879Z,1000.28
2023-04-29T07:55:53.721Z,1000.30
2023-04-29T07:56:53.708Z,1000.28
2023-04-29T07:57:53.702Z,1000.28
2023-04-29T07:58:53.669Z,1000.30
2023-04-29T07:59:53.726Z,1000.33
2023-04-29T08:00:53.642Z,1000.33
2023-04-29T08:01:53.636Z,1000.35
2023-04-29T08:02:53.749Z,1000.34
2023-04-29T08:03:53.953Z,1000.39
2023-04-29T08:04:54.321Z,1000.37
2023-04-29T08:05:53.756Z,1000.38
2023-04-29T08:06:53.584Z,1000.40
2023-04-29T08:07:53.573Z,1000.41
2023-04-29T08:08:53.596Z,1000.41
2023-04-29T08:09:53.557Z,1000.43
2023-04-29T08:10:53.540Z,1000.44
2023-04-29T08:11:53.524Z,1000.45
2023-04-29T08:12:53.504Z,1000.47
2023-04-29T08:13:53.541Z,1000.48
2023-04-29T08:14:53.713Z,1000.47
2023-04-29T08:15:53.534Z,1000.50
2023-04-29T08:16:53.476Z,1000.52
2023-04-29T08:17:53.549Z,1000.53
2023-04-29T08:18:53.452Z,1000.55
2023-04-29T08:19:53.453Z,1000.53
2023-04-29T08:20:53.452Z,1000.55
2023-04-29T08:21:53.432Z,1000.53
2023-04-29T08:22:53.396Z,1000.54
2023-04-29T08:23:53.425Z,1000.56
2023-04-29T08:24:53.653Z,1000.58
2023-04-29T08:25:53.369Z,1000.59
2023-04-29T08:26:53.386Z,1000.61
2023-04-29T08:27:53.377Z,1000.64
2023-04-29T08:28:53.353Z,1000.65
2023-04-29T08:29:53.372Z,1000.66
2023-04-29T08:30:53.353Z,1000.66
2023-04-29T08:31:53.333Z,1000.68
2023-04-29T08:32:53.377Z,1000.69
2023-04-29T08:33:53.599Z,1000.70
2023-04-29T08:34:53.418Z,1000.70
2023-04-29T08:35:53.291Z,1000.71
2023-04-29T08:36:53.254Z,1000.72
2023-04-29T08:37:53.234Z,1000.73
2023-04-29T08:38:53.228Z,1000.75
2023-04-29T08:39:53.294Z,1000.77
2023-04-29T08:40:53.228Z,1000.79
2023-04-29T08:41:53.192Z,1000.80
2023-04-29T08:42:53.184Z,1000.79
2023-04-29T08:43:53.188Z,1000.78
2023-04-29T08:44:53.334Z,1000.79
2023-04-29T08:45:53.185Z,1000.79
2023-04-29T08:46:53.157Z,1000.79
2023-04-29T08:47:53.192Z,1000.80
2023-04-29T08:48:53.108Z,1000.81
2023-04-29T08:49:53.120Z,1000.81
2023-04-29T08:50:53.109Z,1000.83
2023-04-29T08:51:53.208Z,1000.85
2023-04-29T08:52:53.064Z,1000.85
2023-04-29T08:53:53.082Z,1000.85
2023-04-29T08:54:53.295Z,1000.85
2023-04-29T08:55:53.101Z,1000.86
2023-04-29T08:56:53.045Z,1000.87
2023-04-29T08:57:53.026Z,1000.86
2023-04-29T08:58:53.020Z,1000.86
2023-04-29T08:59:53.014Z,1000.85
2023-04-29T09:00:53.029Z,1000.87
2023-04-29T09:01:52.976Z,1000.90
2023-04-29T09:02:52.997Z,1000.91
2023-04-29T09:03:53.098Z,1000.90
2023-04-29T09:04:53.241Z,1000.90
2023-04-29T09:05:52.922Z,1000.91
2023-04-29T09:06:52.923Z,1000.92
2023-04-29T09:07:52.919Z,1000.91
2023-04-29T09:08:52.912Z,1000.93
2023-04-29T09:09:52.874Z,1000.92
2023-04-29T09:10:52.936Z,1000.92
2023-04-29T09:11:52.885Z,1000.91
2023-04-29T09:12:52.853Z,1000.91
2023-04-29T09:13:52.877Z,1000.89
2023-04-29T09:14:53.009Z,1000.88
2023-04-29T09:15:52.829Z,1000.90
2023-04-29T09:16:52.872Z,1000.91
2023-04-29T09:17:52.874Z,1000.91
2023-04-29T09:18:52.789Z,1000.92
2023-04-29T09:19:52.788Z,1000.91
2023-04-29T09:20:52.776Z,1000.93
2023-04-29T09:21:52.776Z,1000.94
2023-04-29T09:22:52.754Z,1000.95
2023-04-29T09:23:52.727Z,1000.95
2023-04-29T09:24:52.962Z,1000.98
2023-04-29T09:25:52.696Z,1000.97
2023-04-29T09:26:52.706Z,1000.96
2023-04-29T09:27:52.709Z,1001.00
2023-04-29T09:28:52.695Z,1001.02
2023-04-29T09:29:52.695Z,1001.02
2023-04-29T09:30:52.647Z,1001.04
2023-04-29T09:31:52.706Z,1001.03
2023-04-29T09:32:52.705Z,1001.03
2023-04-29T09:33:52.661Z,1001.05
2023-04-29T09:34:52.935Z,1001.06
2023-04-29T09:35:52.599Z,1001.04
2023-04-29T09:36:52.585Z,1001.03
2023-04-29T09:37:52.621Z,1001.08
2023-04-29T09:38:52.576Z,1001.05
2023-04-29T09:39:52.570Z,1001.06
2023-04-29T09:41:52.602Z,1001.10
2023-04-29T09:42:52.530Z,1001.12
2023-04-29T09:43:52.519Z,1001.13
2023-04-29T09:44:52.704Z,1001.15
2023-04-29T09:45:52.522Z,1001.16
2023-04-29T09:46:52.470Z,1001.17
2023-04-29T09:47:52.612Z,1001.18
2023-04-29T09:48:52.471Z,1001.20
2023-04-29T09:49:52.458Z,1001.20
2023-04-29T09:50:52.444Z,1001.21
2023-04-29T09:51:52.430Z,1001.20
2023-04-29T09:52:52.456Z,1001.23
2023-04-29T09:53:52.402Z,1001.22
2023-04-29T09:54:52.551Z,1001.21
2023-04-29T09:55:52.398Z,1001.23
2023-04-29T09:56:52.403Z,1001.22
2023-04-29T09:57:52.335Z,1001.24
2023-04-29T09:58:52.352Z,1001.24
2023-04-29T09:59:52.319Z,1001.25
2023-04-29T10:00:52.345Z,1001.27
2023-04-29T10:01:52.383Z,1001.30
2023-04-29T10:02:52.386Z,1001.29
2023-04-29T10:03:52.427Z,1001.30
2023-04-29T10:04:52.505Z,1001.31
2023-04-29T10:05:52.284Z,1001.34
2023-04-29T10:06:52.277Z,1001.33
2023-04-29T10:07:52.295Z,1001.34
2023-04-29T10:08:52.277Z,1001.36
2023-04-29T10:09:52.228Z,1001.38
2023-04-29T10:10:52.214Z,1001.37
2023-04-29T10:11:52.208Z,1001.37
2023-04-29T10:12:52.219Z,1001.38
2023-04-29T10:13:52.181Z,1001.37
2023-04-29T10:14:52.426Z,1001.37
2023-04-29T10:15:52.214Z,1001.34
2023-04-29T10:16:52.176Z,1001.37
2023-04-29T10:17:52.137Z,1001.38
2023-04-29T10:18:52.232Z,1001.37
2023-04-29T10:19:52.115Z,1001.37
2023-04-29T10:20:52.096Z,1001.39
2023-04-29T10:21:52.105Z,1001.38
2023-04-29T10:22:52.073Z,1001.37
2023-04-29T10:23:52.084Z,1001.37
2023-04-29T10:24:52.247Z,1001.37
2023-04-29T10:25:52.052Z,1001.36
2023-04-29T10:26:52.058Z,1001.32
2023-04-29T10:27:52.021Z,1001.34
2023-04-29T10:28:52.030Z,1001.33
2023-04-29T10:29:52.005Z,1001.32
2023-04-29T10:30:52.022Z,1001.31
2023-04-29T10:31:52.050Z,1001.32
2023-04-29T10:32:52.998Z,1001.33
2023-04-29T10:33:51.998Z,1001.33
2023-04-29T10:34:52.262Z,1001.33
2023-04-29T10:35:51.951Z,1001.32
2023-04-29T10:36:51.982Z,1001.33
2023-04-29T10:37:51.967Z,1001.33
2023-04-29T10:38:51.913Z,1001.34
2023-04-29T10:39:51.915Z,1001.33
2023-04-29T10:40:51.885Z,1001.32
2023-04-29T10:41:51.905Z,1001.31
2023-04-29T10:42:51.865Z,1001.31
2023-04-29T10:43:51.862Z,1001.29
2023-04-29T10:44:52.007Z,1001.27
2023-04-29T10:45:51.829Z,1001.27
2023-04-29T10:46:52.010Z,1001.25
2023-04-29T10:47:51.826Z,1001.27
2023-04-29T10:48:51.811Z,1001.27
2023-04-29T10:49:51.803Z,1001.26
2023-04-29T10:50:51.780Z,1001.25
2023-04-29T10:51:51.790Z,1001.23
2023-04-29T10:52:51.795Z,1001.25
2023-04-29T10:53:51.755Z,1001.25
2023-04-29T10:54:52.034Z,1001.25
2023-04-29T10:55:51.726Z,1001.26
2023-04-29T10:56:51.716Z,1001.28
2023-04-29T10:57:51.683Z,1001.29
2023-04-29T10:58:51.697Z,1001.31
2023-04-29T10:59:51.684Z,1001.32
2023-04-29T11:00:51.720Z,1001.33
2023-04-29T11:01:51.703Z,1001.34
2023-04-29T11:02:51.774Z,1001.33
2023-04-29T11:03:51.943Z,1001.35
2023-04-29T11:04:52.097Z,1001.34
2023-04-29T11:05:51.620Z,1001.33
2023-04-29T11:06:51.675Z,1001.35
2023-04-29T11:07:51.610Z,1001.34
2023-04-29T11:08:51.712Z,1001.33
2023-04-29T11:09:51.785Z,1001.33
2023-04-29T11:10:51.630Z,1001.34
2023-04-29T11:11:51.687Z,1001.33
2023-04-29T11:12:51.585Z,1001.33
2023-04-29T11:13:51.548Z,1001.33
2023-04-29T11:14:51.857Z,1001.32
2023-04-29T11:15:51.616Z,1001.32
2023-04-29T11:16:51.716Z,1001.32
2023-04-29T11:17:51.524Z,1001.30
2023-04-29T11:18:51.501Z,1001.29
2023-04-29T11:19:51.529Z,1001.30
2023-04-29T11:20:51.498Z,1001.29
2023-04-29T11:21:51.507Z,1001.27
2023-04-29T11:22:51.527Z,1001.26
2023-04-29T11:23:51.467Z,1001.26
2023-04-29T11:24:51.814Z,1001.24
2023-04-29T11:25:51.489Z,1001.24
2023-04-29T11:26:51.429Z,1001.23
2023-04-29T11:27:51.489Z,1001.24
2023-04-29T11:28:51.660Z,1001.23
2023-04-29T11:29:51.430Z,1001.23
2023-04-29T11:30:51.347Z,1001.23
2023-04-29T11:31:51.461Z,1001.22
2023-04-29T11:32:51.410Z,1001.26
2023-04-29T11:33:51.303Z,1001.28
2023-04-29T11:34:51.768Z,1001.26
2023-04-29T11:35:51.323Z,1001.27
2023-04-29T11:36:51.285Z,1001.29
2023-04-29T11:37:51.328Z,1001.29
2023-04-29T11:38:51.445Z,1001.28
2023-04-29T11:39:51.285Z,1001.28
2023-04-29T11:40:51.310Z,1001.28
2023-04-29T11:41:52.714Z,1001.28
2023-04-29T11:42:51.396Z,1001.29
2023-04-29T11:43:51.244Z,1001.35
2023-04-29T11:44:51.278Z,1001.36
2023-04-29T11:45:51.228Z,1001.33
2023-04-29T11:46:51.220Z,1001.35
2023-04-29T11:47:52.734Z,1001.35
2023-04-29T11:48:51.185Z,1001.34
2023-04-29T11:49:51.170Z,1001.36
2023-04-29T11:50:51.146Z,1001.34
2023-04-29T11:51:51.104Z,1001.33
2023-04-29T11:52:51.105Z,1001.34
2023-04-29T11:53:51.081Z,1001.32
2023-04-29T11:54:51.365Z,1001.32
2023-04-29T11:55:51.179Z,1001.31
2023-04-29T11:56:51.049Z,1001.31
2023-04-29T11:57:51.070Z,1001.32
2023-04-29T11:58:51.064Z,1001.33
2023-04-29T11:59:51.115Z,1001.35
2023-04-29T12:00:51.045Z,1001.32
2023-04-29T12:01:51.014Z,1001.34
2023-04-29T12:02:51.191Z,1001.35
2023-04-29T12:03:51.261Z,1001.36
2023-04-29T12:04:51.404Z,1001.36
2023-04-29T12:05:51.210Z,1001.37
2023-04-29T12:06:50.963Z,1001.38
2023-04-29T12:07:50.921Z,1001.38
2023-04-29T12:08:50.927Z,1001.39
2023-04-29T12:09:50.975Z,1001.40
2023-04-29T12:10:50.974Z,1001.40
2023-04-29T12:11:50.934Z,1001.40
2023-04-29T12:12:50.943Z,1001.41
2023-04-29T12:13:50.906Z,1001.43
2023-04-29T12:14:50.913Z,1001.44
2023-04-29T12:15:50.889Z,1001.46
2023-04-29T12:16:50.866Z,1001.47
2023-04-29T12:17:50.846Z,1001.48
2023-04-29T12:18:50.861Z,1001.47
2023-04-29T12:19:50.817Z,1001.47
2023-04-29T12:20:50.794Z,1001.47